sensor_id;sensor_type;location;lat;lon;timestamp;temperature;humidity
21189;DHT22;39071;52.420;20.896;2022-11-25T00:01:26;1.70;1.00
21189;DHT22;39071;52.420;20.896;2022-11-25T00:03:53;1.80;1.00
21189;DHT22;39071;52.420;20.896;2022-11-25T00:06:24;1.80;1.00
21189;DHT22;39071;52.420;20.896;2022-11-25T00:08:54;1.80;1.00
21189;DHT22;39071;52.420;20.896;2022-11-25T00:11:20;1.60;1.00
21189;DHT22;39071;52.420;20.896;2022-11-25T00:13:47;1.60;1.00
21189;DHT22;39071;52.420;20.896;2022-11-25T00:16:15;1.50;1.00
21189;DHT22;39071;52.420;20.896;2022-11-25T00:18:48;1.60;1.00
21189;DHT22;39071;52.420;20.896;2022-11-25T00:21:17;1.60;19.90
21189;DHT22;39071;52.420;20.896;2022-11-25T00:23:42;1.70;1.00
21189;DHT22;39071;52.420;20.896;2022-11-25T00:26:15;1.80;1.00
21189;DHT22;39071;52.420;20.896;2022-11-25T00:28:45;1.70;1.00
21189;DHT22;39071;52.420;20.896;2022-11-25T00:31:14;1.80;1.00
21189;DHT22;39071;52.420;20.896;2022-11-25T00:33:40;1.70;1.00
21189;DHT22;39071;52.420;20.896;2022-11-25T00:36:19;1.70;1.00
21189;DHT22;39071;52.420;20.896;2022-11-25T00:38:45;1.70;1.00
21189;DHT22;39071;52.420;20.896;2022-11-25T00:41:11;1.70;1.00
21189;DHT22;39071;52.420;20.896;2022-11-25T00:43:56;1.60;1.00
21189;DHT22;39071;52.420;20.896;2022-11-25T00:46:41;1.50;1.00
21189;DHT22;39071;52.420;20.896;2022-11-25T00:49:07;1.90;1.00
21189;DHT22;39071;52.420;20.896;2022-11-25T00:51:33;1.60;94.50
21189;DHT22;39071;52.420;20.896;2022-11-25T00:53:58;1.60;63.00
21189;DHT22;39071;52.420;20.896;2022-11-25T00:56:24;1.70;97.00
21189;DHT22;39071;52.420;20.896;2022-11-25T00:58:52;1.80;17.60
21189;DHT22;39071;52.420;20.896;2022-11-25T01:01:18;1.80;1.00
21189;DHT22;39071;52.420;20.896;2022-11-25T01:03:44;1.90;1.00
21189;DHT22;39071;52.420;20.896;2022-11-25T01:06:12;1.90;1.00
21189;DHT22;39071;52.420;20.896;2022-11-25T01:08:38;1.90;1.00
21189;DHT22;39071;52.420;20.896;2022-11-25T01:11:09;1.90;1.00
21189;DHT22;39071;52.420;20.896;2022-11-25T01:13:35;1.90;1.00
21189;DHT22;39071;52.420;20.896;2022-11-25T01:16:05;1.90;1.00
21189;DHT22;39071;52.420;20.896;2022-11-25T01:18:31;2.40;1.00
21189;DHT22;39071;52.420;20.896;2022-11-25T01:21:08;1.80;1.00
21189;DHT22;39071;52.420;20.896;2022-11-25T01:23:35;1.70;1.00
21189;DHT22;39071;52.420;20.896;2022-11-25T01:26:05;1.70;1.00
21189;DHT22;39071;52.420;20.896;2022-11-25T01:28:31;1.80;1.00
21189;DHT22;39071;52.420;20.896;2022-11-25T01:31:22;1.80;1.00
21189;DHT22;39071;52.420;20.896;2022-11-25T01:33:50;1.80;1.00
21189;DHT22;39071;52.420;20.896;2022-11-25T01:36:17;1.80;1.00
21189;DHT22;39071;52.420;20.896;2022-11-25T01:38:44;1.80;1.00
21189;DHT22;39071;52.420;20.896;2022-11-25T01:41:12;2.10;1.00
21189;DHT22;39071;52.420;20.896;2022-11-25T01:43:39;1.90;1.00
21189;DHT22;39071;52.420;20.896;2022-11-25T01:54:00;1.80;1.00
21189;DHT22;39071;52.420;20.896;2022-11-25T01:56:27;1.80;1.00
21189;DHT22;39071;52.420;20.896;2022-11-25T01:58:55;1.80;1.00
21189;DHT22;39071;52.420;20.896;2022-11-25T02:01:21;1.70;1.00
21189;DHT22;39071;52.420;20.896;2022-11-25T02:03:50;1.70;1.00
21189;DHT22;39071;52.420;20.896;2022-11-25T02:06:19;1.70;1.00
21189;DHT22;39071;52.420;20.896;2022-11-25T02:08:49;1.90;1.00
21189;DHT22;39071;52.420;20.896;2022-11-25T02:11:16;1.60;1.00
21189;DHT22;39071;52.420;20.896;2022-11-25T02:13:44;1.70;1.00
21189;DHT22;39071;52.420;20.896;2022-11-25T02:16:11;1.70;1.00
21189;DHT22;39071;52.420;20.896;2022-11-25T02:18:37;1.70;6.30
21189;DHT22;39071;52.420;20.896;2022-11-25T02:21:03;1.70;1.00
21189;DHT22;39071;52.420;20.896;2022-11-25T02:23:55;1.60;1.00
21189;DHT22;39071;52.420;20.896;2022-11-25T02:26:23;1.50;37.30
21189;DHT22;39071;52.420;20.896;2022-11-25T02:28:49;1.50;99.90
21189;DHT22;39071;52.420;20.896;2022-11-25T02:31:20;1.60;99.90
21189;DHT22;39071;52.420;20.896;2022-11-25T02:33:46;1.60;99.90
21189;DHT22;39071;52.420;20.896;2022-11-25T02:36:15;1.60;99.90
21189;DHT22;39071;52.420;20.896;2022-11-25T02:38:56;1.60;99.90
21189;DHT22;39071;52.420;20.896;2022-11-25T02:41:30;1.60;99.90
21189;DHT22;39071;52.420;20.896;2022-11-25T02:43:57;1.60;99.90
21189;DHT22;39071;52.420;20.896;2022-11-25T02:46:25;1.70;99.90
21189;DHT22;39071;52.420;20.896;2022-11-25T02:48:52;1.80;99.90
21189;DHT22;39071;52.420;20.896;2022-11-25T02:51:20;1.90;99.90
21189;DHT22;39071;52.420;20.896;2022-11-25T02:53:47;1.90;99.90
21189;DHT22;39071;52.420;20.896;2022-11-25T02:56:15;1.90;99.90
21189;DHT22;39071;52.420;20.896;2022-11-25T02:58:41;1.90;1.00
21189;DHT22;39071;52.420;20.896;2022-11-25T03:01:07;1.90;1.00
21189;DHT22;39071;52.420;20.896;2022-11-25T03:03:34;1.80;1.00
21189;DHT22;39071;52.420;20.896;2022-11-25T03:06:00;1.70;1.00
21189;DHT22;39071;52.420;20.896;2022-11-25T03:08:25;1.90;91.20
21189;DHT22;39071;52.420;20.896;2022-11-25T03:10:51;1.90;60.80
21189;DHT22;39071;52.420;20.896;2022-11-25T03:13:17;1.90;1.00
21189;DHT22;39071;52.420;20.896;2022-11-25T03:15:43;2.00;1.00
21189;DHT22;39071;52.420;20.896;2022-11-25T03:18:08;1.90;1.00
21189;DHT22;39071;52.420;20.896;2022-11-25T03:20:35;2.00;1.00
21189;DHT22;39071;52.420;20.896;2022-11-25T03:23:01;2.10;1.00
21189;DHT22;39071;52.420;20.896;2022-11-25T03:25:27;2.10;1.00
21189;DHT22;39071;52.420;20.896;2022-11-25T03:27:53;2.10;1.00
21189;DHT22;39071;52.420;20.896;2022-11-25T03:30:21;2.10;1.00
21189;DHT22;39071;52.420;20.896;2022-11-25T03:32:47;2.10;1.00
21189;DHT22;39071;52.420;20.896;2022-11-25T03:35:14;2.10;1.00
21189;DHT22;39071;52.420;20.896;2022-11-25T03:37:40;2.10;1.00
21189;DHT22;39071;52.420;20.896;2022-11-25T03:40:07;2.10;1.00
21189;DHT22;39071;52.420;20.896;2022-11-25T03:42:33;2.10;1.00
21189;DHT22;39071;52.420;20.896;2022-11-25T03:44:59;2.10;1.00
21189;DHT22;39071;52.420;20.896;2022-11-25T03:47:25;2.10;1.00
21189;DHT22;39071;52.420;20.896;2022-11-25T03:49:51;2.10;1.00
21189;DHT22;39071;52.420;20.896;2022-11-25T03:52:17;2.10;1.00
21189;DHT22;39071;52.420;20.896;2022-11-25T03:54:42;2.10;1.00
21189;DHT22;39071;52.420;20.896;2022-11-25T03:57:08;2.20;1.00
21189;DHT22;39071;52.420;20.896;2022-11-25T03:59:34;2.10;1.00
21189;DHT22;39071;52.420;20.896;2022-11-25T04:02:00;2.20;1.00
21189;DHT22;39071;52.420;20.896;2022-11-25T04:04:26;2.20;1.00
21189;DHT22;39071;52.420;20.896;2022-11-25T04:06:52;2.20;1.00
21189;DHT22;39071;52.420;20.896;2022-11-25T04:09:17;2.20;1.00
21189;DHT22;39071;52.420;20.896;2022-11-25T04:11:43;2.20;1.00
21189;DHT22;39071;52.420;20.896;2022-11-25T04:14:29;2.20;1.00
21189;DHT22;39071;52.420;20.896;2022-11-25T04:16:54;2.20;1.00
21189;DHT22;39071;52.420;20.896;2022-11-25T04:19:22;2.20;1.00
21189;DHT22;39071;52.420;20.896;2022-11-25T04:21:48;2.20;1.00
21189;DHT22;39071;52.420;20.896;2022-11-25T04:24:14;2.20;1.00
21189;DHT22;39071;52.420;20.896;2022-11-25T04:26:39;2.20;1.00
21189;DHT22;39071;52.420;20.896;2022-11-25T04:29:05;2.20;1.00
21189;DHT22;39071;52.420;20.896;2022-11-25T04:31:31;2.20;1.00
21189;DHT22;39071;52.420;20.896;2022-11-25T04:33:57;2.20;1.00
21189;DHT22;39071;52.420;20.896;2022-11-25T04:36:22;2.10;1.00
21189;DHT22;39071;52.420;20.896;2022-11-25T04:38:48;2.00;94.80
21189;DHT22;39071;52.420;20.896;2022-11-25T04:41:14;2.00;99.90
21189;DHT22;39071;52.420;20.896;2022-11-25T04:43:40;2.00;99.90
21189;DHT22;39071;52.420;20.896;2022-11-25T04:46:06;2.10;1.00
21189;DHT22;39071;52.420;20.896;2022-11-25T04:48:32;2.10;99.90
21189;DHT22;39071;52.420;20.896;2022-11-25T04:50:58;2.10;99.90
21189;DHT22;39071;52.420;20.896;2022-11-25T04:53:24;2.10;99.90
21189;DHT22;39071;52.420;20.896;2022-11-25T04:55:50;2.20;99.90
21189;DHT22;39071;52.420;20.896;2022-11-25T04:58:15;2.20;99.90
21189;DHT22;39071;52.420;20.896;2022-11-25T05:01:01;2.20;99.90
21189;DHT22;39071;52.420;20.896;2022-11-25T05:03:26;2.50;99.90
21189;DHT22;39071;52.420;20.896;2022-11-25T05:05:52;2.20;99.90
21189;DHT22;39071;52.420;20.896;2022-11-25T05:08:18;2.10;45.70
21189;DHT22;39071;52.420;20.896;2022-11-25T05:10:44;2.20;99.90
21189;DHT22;39071;52.420;20.896;2022-11-25T05:13:10;2.10;92.20
21189;DHT22;39071;52.420;20.896;2022-11-25T05:15:35;2.00;99.90
21189;DHT22;39071;52.420;20.896;2022-11-25T05:18:01;2.10;99.90
21189;DHT22;39071;52.420;20.896;2022-11-25T05:20:27;2.10;99.90
21189;DHT22;39071;52.420;20.896;2022-11-25T05:22:53;2.20;99.90
21189;DHT22;39071;52.420;20.896;2022-11-25T05:25:19;2.20;99.90
21189;DHT22;39071;52.420;20.896;2022-11-25T05:27:45;2.20;99.90
21189;DHT22;39071;52.420;20.896;2022-11-25T05:30:12;2.20;99.90
21189;DHT22;39071;52.420;20.896;2022-11-25T05:32:37;2.20;99.90
21189;DHT22;39071;52.420;20.896;2022-11-25T05:35:05;2.20;99.90
21189;DHT22;39071;52.420;20.896;2022-11-25T05:37:31;2.20;99.90
21189;DHT22;39071;52.420;20.896;2022-11-25T05:39:56;2.20;99.90
21189;DHT22;39071;52.420;20.896;2022-11-25T05:42:22;2.20;99.90
21189;DHT22;39071;52.420;20.896;2022-11-25T05:44:48;2.10;99.90
21189;DHT22;39071;52.420;20.896;2022-11-25T05:47:13;2.10;1.00
21189;DHT22;39071;52.420;20.896;2022-11-25T05:49:39;2.10;1.00
21189;DHT22;39071;52.420;20.896;2022-11-25T05:52:05;2.10;1.00
21189;DHT22;39071;52.420;20.896;2022-11-25T05:54:30;2.00;1.00
21189;DHT22;39071;52.420;20.896;2022-11-25T05:56:56;2.60;1.00
21189;DHT22;39071;52.420;20.896;2022-11-25T05:59:22;1.90;1.00
21189;DHT22;39071;52.420;20.896;2022-11-25T06:01:52;1.90;1.00
21189;DHT22;39071;52.420;20.896;2022-11-25T06:04:18;1.90;1.00
21189;DHT22;39071;52.420;20.896;2022-11-25T06:06:43;1.80;5.50
21189;DHT22;39071;52.420;20.896;2022-11-25T06:09:09;1.90;99.90
21189;DHT22;39071;52.420;20.896;2022-11-25T06:11:35;1.90;1.00
21189;DHT22;39071;52.420;20.896;2022-11-25T06:14:00;2.00;1.00
21189;DHT22;39071;52.420;20.896;2022-11-25T06:16:26;2.00;99.90
21189;DHT22;39071;52.420;20.896;2022-11-25T06:18:52;2.10;99.90
21189;DHT22;39071;52.420;20.896;2022-11-25T06:21:18;2.10;83.50
21189;DHT22;39071;52.420;20.896;2022-11-25T06:23:44;2.10;13.50
21189;DHT22;39071;52.420;20.896;2022-11-25T06:26:18;2.10;1.00
21189;DHT22;39071;52.420;20.896;2022-11-25T06:28:45;2.10;1.00
21189;DHT22;39071;52.420;20.896;2022-11-25T06:31:14;2.10;1.00
21189;DHT22;39071;52.420;20.896;2022-11-25T06:33:42;2.00;1.00
21189;DHT22;39071;52.420;20.896;2022-11-25T06:36:10;2.00;1.00
21189;DHT22;39071;52.420;20.896;2022-11-25T06:38:46;2.10;1.00
21189;DHT22;39071;52.420;20.896;2022-11-25T06:41:12;2.10;1.00
21189;DHT22;39071;52.420;20.896;2022-11-25T06:43:38;2.10;99.90
21189;DHT22;39071;52.420;20.896;2022-11-25T06:46:06;2.20;1.00
21189;DHT22;39071;52.420;20.896;2022-11-25T06:48:32;2.30;1.00
21189;DHT22;39071;52.420;20.896;2022-11-25T06:51:00;2.30;1.00
21189;DHT22;39071;52.420;20.896;2022-11-25T06:53:26;2.30;1.00
21189;DHT22;39071;52.420;20.896;2022-11-25T06:58:28;2.40;99.90
21189;DHT22;39071;52.420;20.896;2022-11-25T07:03:51;2.30;99.90
21189;DHT22;39071;52.420;20.896;2022-11-25T07:06:18;2.30;99.90
21189;DHT22;39071;52.420;20.896;2022-11-25T07:08:44;2.40;99.90
21189;DHT22;39071;52.420;20.896;2022-11-25T07:11:17;2.30;99.90
21189;DHT22;39071;52.420;20.896;2022-11-25T07:13:43;2.20;99.90
21189;DHT22;39071;52.420;20.896;2022-11-25T07:16:10;2.20;99.90
21189;DHT22;39071;52.420;20.896;2022-11-25T07:18:37;2.30;99.90
21189;DHT22;39071;52.420;20.896;2022-11-25T07:21:05;2.30;99.90
21189;DHT22;39071;52.420;20.896;2022-11-25T07:23:32;2.40;99.90
21189;DHT22;39071;52.420;20.896;2022-11-25T07:26:09;2.40;99.90
21189;DHT22;39071;52.420;20.896;2022-11-25T07:28:36;2.40;17.50
21189;DHT22;39071;52.420;20.896;2022-11-25T07:31:12;2.40;7.30
21189;DHT22;39071;52.420;20.896;2022-11-25T07:33:38;2.40;99.40
21189;DHT22;39071;52.420;20.896;2022-11-25T07:36:06;2.50;84.70
21189;DHT22;39071;52.420;20.896;2022-11-25T07:38:34;2.50;1.00
21189;DHT22;39071;52.420;20.896;2022-11-25T07:41:08;2.50;1.00
21189;DHT22;39071;52.420;20.896;2022-11-25T07:43:34;2.50;1.00
21189;DHT22;39071;52.420;20.896;2022-11-25T07:46:18;2.40;1.00
21189;DHT22;39071;52.420;20.896;2022-11-25T07:48:44;2.50;1.00
21189;DHT22;39071;52.420;20.896;2022-11-25T07:51:16;2.50;1.00
21189;DHT22;39071;52.420;20.896;2022-11-25T07:53:42;2.50;1.00
21189;DHT22;39071;52.420;20.896;2022-11-25T07:56:08;2.50;1.00
21189;DHT22;39071;52.420;20.896;2022-11-25T07:58:34;2.50;1.00
21189;DHT22;39071;52.420;20.896;2022-11-25T08:01:05;2.50;1.00
21189;DHT22;39071;52.420;20.896;2022-11-25T08:03:32;2.50;1.00
21189;DHT22;39071;52.420;20.896;2022-11-25T08:06:07;2.50;1.00
21189;DHT22;39071;52.420;20.896;2022-11-25T08:08:34;2.60;1.00
21189;DHT22;39071;52.420;20.896;2022-11-25T08:11:04;2.60;1.00
21189;DHT22;39071;52.420;20.896;2022-11-25T08:13:30;2.60;1.00
21189;DHT22;39071;52.420;20.896;2022-11-25T08:15:58;2.60;1.00
21189;DHT22;39071;52.420;20.896;2022-11-25T08:18:24;2.60;1.00
21189;DHT22;39071;52.420;20.896;2022-11-25T08:20:50;2.60;1.00
21189;DHT22;39071;52.420;20.896;2022-11-25T08:23:15;2.60;1.00
21189;DHT22;39071;52.420;20.896;2022-11-25T08:25:42;2.70;1.00
21189;DHT22;39071;52.420;20.896;2022-11-25T08:28:08;2.70;1.00
21189;DHT22;39071;52.420;20.896;2022-11-25T08:30:35;2.70;1.00
21189;DHT22;39071;52.420;20.896;2022-11-25T08:33:01;2.80;1.00
21189;DHT22;39071;52.420;20.896;2022-11-25T08:35:29;2.70;1.00
21189;DHT22;39071;52.420;20.896;2022-11-25T08:37:57;2.70;1.00
21189;DHT22;39071;52.420;20.896;2022-11-25T08:40:23;2.70;1.00
21189;DHT22;39071;52.420;20.896;2022-11-25T08:42:48;2.80;1.00
21189;DHT22;39071;52.420;20.896;2022-11-25T08:45:14;2.80;1.00
21189;DHT22;39071;52.420;20.896;2022-11-25T08:47:40;2.90;1.00
21189;DHT22;39071;52.420;20.896;2022-11-25T08:50:08;2.90;1.00
21189;DHT22;39071;52.420;20.896;2022-11-25T08:52:34;2.90;1.00
21189;DHT22;39071;52.420;20.896;2022-11-25T08:55:00;3.10;1.00
21189;DHT22;39071;52.420;20.896;2022-11-25T08:57:26;3.10;1.00
21189;DHT22;39071;52.420;20.896;2022-11-25T08:59:51;3.20;1.00
21189;DHT22;39071;52.420;20.896;2022-11-25T09:02:17;3.20;1.00
21189;DHT22;39071;52.420;20.896;2022-11-25T09:04:43;3.10;1.00
21189;DHT22;39071;52.420;20.896;2022-11-25T09:07:09;3.10;1.00
21189;DHT22;39071;52.420;20.896;2022-11-25T09:09:35;3.10;1.00
21189;DHT22;39071;52.420;20.896;2022-11-25T09:12:01;3.10;1.00
21189;DHT22;39071;52.420;20.896;2022-11-25T09:14:27;2.90;99.90
21189;DHT22;39071;52.420;20.896;2022-11-25T09:16:57;2.90;1.00
21189;DHT22;39071;52.420;20.896;2022-11-25T09:19:26;3.00;1.00
21189;DHT22;39071;52.420;20.896;2022-11-25T09:21:53;3.00;1.00
21189;DHT22;39071;52.420;20.896;2022-11-25T09:24:19;3.10;1.00
21189;DHT22;39071;52.420;20.896;2022-11-25T09:26:45;3.10;1.00
21189;DHT22;39071;52.420;20.896;2022-11-25T09:29:12;3.10;99.90
21189;DHT22;39071;52.420;20.896;2022-11-25T09:31:38;3.00;99.90
21189;DHT22;39071;52.420;20.896;2022-11-25T09:34:04;2.90;99.90
21189;DHT22;39071;52.420;20.896;2022-11-25T09:36:30;3.00;1.00
21189;DHT22;39071;52.420;20.896;2022-11-25T09:38:56;3.10;1.00
21189;DHT22;39071;52.420;20.896;2022-11-25T09:41:40;3.10;1.00
21189;DHT22;39071;52.420;20.896;2022-11-25T09:47:54;3.10;99.90
21189;DHT22;39071;52.420;20.896;2022-11-25T09:50:39;3.00;1.00
21189;DHT22;39071;52.420;20.896;2022-11-25T09:55:54;2.90;1.00
21189;DHT22;39071;52.420;20.896;2022-11-25T09:59:13;2.90;1.00
21189;DHT22;39071;52.420;20.896;2022-11-25T10:01:23;3.00;1.00
21189;DHT22;39071;52.420;20.896;2022-11-25T10:04:08;3.00;1.00
21189;DHT22;39071;52.420;20.896;2022-11-25T10:06:42;3.10;1.00
21189;DHT22;39071;52.420;20.896;2022-11-25T10:09:15;3.10;1.00
21189;DHT22;39071;52.420;20.896;2022-11-25T10:11:49;3.00;1.00
21189;DHT22;39071;52.420;20.896;2022-11-25T10:23:14;3.10;1.00
21189;DHT22;39071;52.420;20.896;2022-11-25T10:25:27;3.00;1.00
21189;DHT22;39071;52.420;20.896;2022-11-25T10:28:01;3.10;1.00
21189;DHT22;39071;52.420;20.896;2022-11-25T10:33:23;3.00;99.90
21189;DHT22;39071;52.420;20.896;2022-11-25T10:36:05;3.10;1.00
21189;DHT22;39071;52.420;20.896;2022-11-25T10:41:15;3.10;99.90
21189;DHT22;39071;52.420;20.896;2022-11-25T10:43:42;3.10;99.90
21189;DHT22;39071;52.420;20.896;2022-11-25T10:46:33;3.10;99.90
21189;DHT22;39071;52.420;20.896;2022-11-25T10:49:22;3.10;99.90
21189;DHT22;39071;52.420;20.896;2022-11-25T10:51:49;3.30;99.90
21189;DHT22;39071;52.420;20.896;2022-11-25T10:54:19;3.10;99.90
21189;DHT22;39071;52.420;20.896;2022-11-25T11:02:03;3.00;99.90
21189;DHT22;39071;52.420;20.896;2022-11-25T11:04:30;3.00;99.90
21189;DHT22;39071;52.420;20.896;2022-11-25T11:07:07;3.20;99.90
21189;DHT22;39071;52.420;20.896;2022-11-25T11:09:38;3.20;99.90
21189;DHT22;39071;52.420;20.896;2022-11-25T11:14:44;3.20;99.90
21189;DHT22;39071;52.420;20.896;2022-11-25T11:22:47;3.20;99.90
21189;DHT22;39071;52.420;20.896;2022-11-25T11:27:46;3.30;99.90
21189;DHT22;39071;52.420;20.896;2022-11-25T11:30:38;3.40;99.90
21189;DHT22;39071;52.420;20.896;2022-11-25T11:33:32;3.30;99.90
21189;DHT22;39071;52.420;20.896;2022-11-25T11:38:52;3.20;99.90
21189;DHT22;39071;52.420;20.896;2022-11-25T11:41:30;3.30;99.90
21189;DHT22;39071;52.420;20.896;2022-11-25T11:52:31;3.20;99.90
21189;DHT22;39071;52.420;20.896;2022-11-25T11:55:26;3.00;99.90
21189;DHT22;39071;52.420;20.896;2022-11-25T11:58:27;3.20;99.90
21189;DHT22;39071;52.420;20.896;2022-11-25T12:01:04;3.30;99.90
21189;DHT22;39071;52.420;20.896;2022-11-25T12:03:38;3.40;99.90
21189;DHT22;39071;52.420;20.896;2022-11-25T12:06:05;3.50;99.90
21189;DHT22;39071;52.420;20.896;2022-11-25T12:09:19;3.50;99.90
21189;DHT22;39071;52.420;20.896;2022-11-25T12:11:42;3.40;99.90
21189;DHT22;39071;52.420;20.896;2022-11-25T12:14:42;3.40;99.90
21189;DHT22;39071;52.420;20.896;2022-11-25T12:17:36;3.50;99.90
21189;DHT22;39071;52.420;20.896;2022-11-25T12:20:13;3.40;99.90
21189;DHT22;39071;52.420;20.896;2022-11-25T12:22:51;3.30;99.90
21189;DHT22;39071;52.420;20.896;2022-11-25T12:25:30;3.40;99.90
21189;DHT22;39071;52.420;20.896;2022-11-25T12:31:36;3.40;99.90
21189;DHT22;39071;52.420;20.896;2022-11-25T12:36:44;3.50;99.90
21189;DHT22;39071;52.420;20.896;2022-11-25T12:42:01;3.40;99.90
21189;DHT22;39071;52.420;20.896;2022-11-25T12:47:15;3.40;99.90
21189;DHT22;39071;52.420;20.896;2022-11-25T12:50:35;3.40;99.90
21189;DHT22;39071;52.420;20.896;2022-11-25T12:53:56;3.50;99.90
21189;DHT22;39071;52.420;20.896;2022-11-25T12:56:04;3.50;99.90
21189;DHT22;39071;52.420;20.896;2022-11-25T12:59:17;3.60;99.90
21189;DHT22;39071;52.420;20.896;2022-11-25T13:02:43;3.40;99.90
21189;DHT22;39071;52.420;20.896;2022-11-25T13:13:40;3.50;99.90
21189;DHT22;39071;52.420;20.896;2022-11-25T13:16:11;3.50;99.90
21189;DHT22;39071;52.420;20.896;2022-11-25T13:18:40;3.30;1.00
21189;DHT22;39071;52.420;20.896;2022-11-25T13:21:09;3.20;1.00
21189;DHT22;39071;52.420;20.896;2022-11-25T13:23:48;3.20;1.00
21189;DHT22;39071;52.420;20.896;2022-11-25T13:32:11;3.30;1.00
21189;DHT22;39071;52.420;20.896;2022-11-25T13:34:48;3.30;1.00
21189;DHT22;39071;52.420;20.896;2022-11-25T13:37:36;3.30;1.00
21189;DHT22;39071;52.420;20.896;2022-11-25T13:42:57;3.30;1.00
21189;DHT22;39071;52.420;20.896;2022-11-25T13:45:36;3.30;1.00
21189;DHT22;39071;52.420;20.896;2022-11-25T13:48:23;3.30;1.00
21189;DHT22;39071;52.420;20.896;2022-11-25T13:50:55;3.40;1.00
21189;DHT22;39071;52.420;20.896;2022-11-25T13:53:38;3.40;1.00
21189;DHT22;39071;52.420;20.896;2022-11-25T13:56:28;3.40;1.00
21189;DHT22;39071;52.420;20.896;2022-11-25T14:01:37;3.20;1.00
21189;DHT22;39071;52.420;20.896;2022-11-25T14:04:11;3.10;1.00
21189;DHT22;39071;52.420;20.896;2022-11-25T14:20:27;2.80;1.00
21189;DHT22;39071;52.420;20.896;2022-11-25T14:26:18;2.70;1.00
21189;DHT22;39071;52.420;20.896;2022-11-25T14:29:10;2.70;1.00
21189;DHT22;39071;52.420;20.896;2022-11-25T14:31:49;2.80;1.00
21189;DHT22;39071;52.420;20.896;2022-11-25T14:34:23;2.70;1.00
21189;DHT22;39071;52.420;20.896;2022-11-25T14:36:55;2.70;1.00
21189;DHT22;39071;52.420;20.896;2022-11-25T14:39:35;2.70;1.00
21189;DHT22;39071;52.420;20.896;2022-11-25T14:42:05;2.70;99.90
21189;DHT22;39071;52.420;20.896;2022-11-25T14:47:05;2.70;99.90
21189;DHT22;39071;52.420;20.896;2022-11-25T14:49:48;2.70;99.90
21189;DHT22;39071;52.420;20.896;2022-11-25T14:52:22;2.70;99.90
21189;DHT22;39071;52.420;20.896;2022-11-25T14:54:50;2.80;99.90
21189;DHT22;39071;52.420;20.896;2022-11-25T14:57:22;2.80;94.50
21189;DHT22;39071;52.420;20.896;2022-11-25T14:59:49;2.80;93.90
21189;DHT22;39071;52.420;20.896;2022-11-25T15:02:24;2.80;99.90
21189;DHT22;39071;52.420;20.896;2022-11-25T15:04:50;2.80;1.00
21189;DHT22;39071;52.420;20.896;2022-11-25T15:07:19;2.80;1.00
21189;DHT22;39071;52.420;20.896;2022-11-25T15:09:47;2.90;1.00
21189;DHT22;39071;52.420;20.896;2022-11-25T15:12:18;2.90;1.00
21189;DHT22;39071;52.420;20.896;2022-11-25T15:14:52;2.90;1.00
21189;DHT22;39071;52.420;20.896;2022-11-25T15:17:32;3.00;8.40
21189;DHT22;39071;52.420;20.896;2022-11-25T15:20:14;3.00;1.00
21189;DHT22;39071;52.420;20.896;2022-11-25T15:22:50;2.90;1.00
21189;DHT22;39071;52.420;20.896;2022-11-25T15:25:16;2.90;1.00
21189;DHT22;39071;52.420;20.896;2022-11-25T15:27:48;3.00;1.00
21189;DHT22;39071;52.420;20.896;2022-11-25T15:30:26;3.00;1.00
21189;DHT22;39071;52.420;20.896;2022-11-25T15:32:53;3.00;1.00
21189;DHT22;39071;52.420;20.896;2022-11-25T15:35:22;3.00;1.00
21189;DHT22;39071;52.420;20.896;2022-11-25T15:37:48;3.00;1.00
21189;DHT22;39071;52.420;20.896;2022-11-25T15:40:33;3.00;1.00
21189;DHT22;39071;52.420;20.896;2022-11-25T15:43:06;3.00;1.00
21189;DHT22;39071;52.420;20.896;2022-11-25T15:45:53;3.40;1.00
21189;DHT22;39071;52.420;20.896;2022-11-25T15:48:38;2.90;1.00
21189;DHT22;39071;52.420;20.896;2022-11-25T15:51:28;2.90;1.00
21189;DHT22;39071;52.420;20.896;2022-11-25T15:54:31;2.80;1.00
21189;DHT22;39071;52.420;20.896;2022-11-25T15:57:17;2.90;1.00
21189;DHT22;39071;52.420;20.896;2022-11-25T16:10:47;2.90;1.00
21189;DHT22;39071;52.420;20.896;2022-11-25T16:18:55;2.90;1.00
21189;DHT22;39071;52.420;20.896;2022-11-25T16:21:22;2.90;1.00
21189;DHT22;39071;52.420;20.896;2022-11-25T16:23:54;2.90;1.00
21189;DHT22;39071;52.420;20.896;2022-11-25T16:26:29;2.80;1.00
21189;DHT22;39071;52.420;20.896;2022-11-25T16:28:58;2.90;1.00
21189;DHT22;39071;52.420;20.896;2022-11-25T16:31:25;2.90;1.00
21189;DHT22;39071;52.420;20.896;2022-11-25T16:34:11;2.90;1.00
21189;DHT22;39071;52.420;20.896;2022-11-25T16:36:37;2.90;1.00
21189;DHT22;39071;52.420;20.896;2022-11-25T16:39:03;2.90;1.00
21189;DHT22;39071;52.420;20.896;2022-11-25T16:41:29;2.90;1.00
21189;DHT22;39071;52.420;20.896;2022-11-25T16:43:57;3.00;1.00
21189;DHT22;39071;52.420;20.896;2022-11-25T16:46:23;2.90;1.00
21189;DHT22;39071;52.420;20.896;2022-11-25T16:48:49;3.00;1.00
21189;DHT22;39071;52.420;20.896;2022-11-25T16:51:19;3.00;1.00
21189;DHT22;39071;52.420;20.896;2022-11-25T16:53:45;3.00;1.00
21189;DHT22;39071;52.420;20.896;2022-11-25T16:56:18;2.90;1.00
21189;DHT22;39071;52.420;20.896;2022-11-25T16:58:47;3.00;1.00
21189;DHT22;39071;52.420;20.896;2022-11-25T17:01:15;3.00;1.00
21189;DHT22;39071;52.420;20.896;2022-11-25T17:03:42;3.00;1.00
21189;DHT22;39071;52.420;20.896;2022-11-25T17:06:23;3.00;1.00
21189;DHT22;39071;52.420;20.896;2022-11-25T17:08:49;3.00;1.00
21189;DHT22;39071;52.420;20.896;2022-11-25T17:11:42;3.00;1.00
21189;DHT22;39071;52.420;20.896;2022-11-25T17:14:15;3.00;1.00
21189;DHT22;39071;52.420;20.896;2022-11-25T17:16:42;3.00;1.00
21189;DHT22;39071;52.420;20.896;2022-11-25T17:19:13;3.00;1.00
21189;DHT22;39071;52.420;20.896;2022-11-25T17:21:39;3.10;1.00
21189;DHT22;39071;52.420;20.896;2022-11-25T17:24:20;3.10;1.00
21189;DHT22;39071;52.420;20.896;2022-11-25T17:26:54;2.90;1.00
21189;DHT22;39071;52.420;20.896;2022-11-25T17:29:29;2.80;1.00
21189;DHT22;39071;52.420;20.896;2022-11-25T17:31:56;2.70;1.00
21189;DHT22;39071;52.420;20.896;2022-11-25T17:34:22;2.60;31.50
21189;DHT22;39071;52.420;20.896;2022-11-25T17:36:48;2.60;99.90
21189;DHT22;39071;52.420;20.896;2022-11-25T17:39:14;2.90;1.00
21189;DHT22;39071;52.420;20.896;2022-11-25T17:41:42;2.70;1.00
21189;DHT22;39071;52.420;20.896;2022-11-25T17:44:28;2.80;1.00
21189;DHT22;39071;52.420;20.896;2022-11-25T17:46:55;2.80;1.00
21189;DHT22;39071;52.420;20.896;2022-11-25T17:49:21;2.80;1.00
21189;DHT22;39071;52.420;20.896;2022-11-25T17:51:47;2.80;1.00
21189;DHT22;39071;52.420;20.896;2022-11-25T17:54:13;2.70;1.00
21189;DHT22;39071;52.420;20.896;2022-11-25T17:56:40;2.70;1.00
21189;DHT22;39071;52.420;20.896;2022-11-25T17:59:17;2.80;80.30
21189;DHT22;39071;52.420;20.896;2022-11-25T18:01:44;2.80;99.90
21189;DHT22;39071;52.420;20.896;2022-11-25T18:04:19;2.80;1.00
21189;DHT22;39071;52.420;20.896;2022-11-25T18:06:45;2.80;99.90
21189;DHT22;39071;52.420;20.896;2022-11-25T18:09:11;2.70;36.50
21189;DHT22;39071;52.420;20.896;2022-11-25T18:11:38;2.80;99.90